sensor_id;sensor_type;location;lat;lon;timestamp;P1;durP1;ratioP1;P2;durP2;ratioP2
18568;SDS011;14780;48.316;-1.050;2023-04-06T00:00:52;3.88;;;2.80;;
18568;SDS011;14780;48.316;-1.050;2023-04-06T00:03:37;4.22;;;2.55;;
18568;SDS011;14780;48.316;-1.050;2023-04-06T00:06:21;3.25;;;2.45;;
18568;SDS011;14780;48.316;-1.050;2023-04-06T00:09:06;3.17;;;2.40;;
18568;SDS011;14780;48.316;-1.050;2023-04-06T00:11:51;3.28;;;2.67;;
18568;SDS011;14780;48.316;-1.050;2023-04-06T00:14:36;3.45;;;2.60;;
18568;SDS011;14780;48.316;-1.050;2023-04-06T00:17:21;3.22;;;2.38;;
18568;SDS011;14780;48.316;-1.050;2023-04-06T00:20:05;3.65;;;2.50;;
18568;SDS011;14780;48.316;-1.050;2023-04-06T00:22:51;4.30;;;2.85;;
18568;SDS011;14780;48.316;-1.050;2023-04-06T00:25:37;3.22;;;2.50;;
18568;SDS011;14780;48.316;-1.050;2023-04-06T00:28:22;2.92;;;2.42;;
18568;SDS011;14780;48.316;-1.050;2023-04-06T00:31:09;3.78;;;2.78;;
18568;SDS011;14780;48.316;-1.050;2023-04-06T00:33:54;3.40;;;2.30;;
18568;SDS011;14780;48.316;-1.050;2023-04-06T00:36:39;3.50;;;2.42;;
18568;SDS011;14780;48.316;-1.050;2023-04-06T00:39:24;3.33;;;2.58;;
18568;SDS011;14780;48.316;-1.050;2023-04-06T00:42:11;3.80;;;2.47;;
18568;SDS011;14780;48.316;-1.050;2023-04-06T00:44:59;3.22;;;2.42;;
18568;SDS011;14780;48.316;-1.050;2023-04-06T00:47:45;3.53;;;2.45;;
18568;SDS011;14780;48.316;-1.050;2023-04-06T00:50:29;3.92;;;2.50;;
18568;SDS011;14780;48.316;-1.050;2023-04-06T00:53:14;4.03;;;2.55;;
18568;SDS011;14780;48.316;-1.050;2023-04-06T00:55:59;2.55;;;2.25;;
18568;SDS011;14780;48.316;-1.050;2023-04-06T00:58:44;2.88;;;2.28;;
18568;SDS011;14780;48.316;-1.050;2023-04-06T01:01:29;2.95;;;2.33;;
18568;SDS011;14780;48.316;-1.050;2023-04-06T01:04:15;4.30;;;2.78;;
18568;SDS011;14780;48.316;-1.050;2023-04-06T01:07:01;3.67;;;2.63;;
18568;SDS011;14780;48.316;-1.050;2023-04-06T01:09:45;3.90;;;2.53;;
18568;SDS011;14780;48.316;-1.050;2023-04-06T01:12:30;4.45;;;2.35;;
18568;SDS011;14780;48.316;-1.050;2023-04-06T01:15:14;3.40;;;2.58;;
18568;SDS011;14780;48.316;-1.050;2023-04-06T01:17:59;2.92;;;2.47;;
18568;SDS011;14780;48.316;-1.050;2023-04-06T01:20:44;3.38;;;2.33;;
18568;SDS011;14780;48.316;-1.050;2023-04-06T01:23:29;3.72;;;2.70;;
18568;SDS011;14780;48.316;-1.050;2023-04-06T01:26:13;3.97;;;2.20;;
18568;SDS011;14780;48.316;-1.050;2023-04-06T01:28:59;3.00;;;2.33;;
18568;SDS011;14780;48.316;-1.050;2023-04-06T01:31:45;2.90;;;2.38;;
18568;SDS011;14780;48.316;-1.050;2023-04-06T01:34:30;4.10;;;2.65;;
18568;SDS011;14780;48.316;-1.050;2023-04-06T01:37:14;3.10;;;2.10;;
18568;SDS011;14780;48.316;-1.050;2023-04-06T01:39:59;3.38;;;2.60;;
18568;SDS011;14780;48.316;-1.050;2023-04-06T01:42:44;2.85;;;2.50;;
18568;SDS011;14780;48.316;-1.050;2023-04-06T01:45:29;2.53;;;2.33;;
18568;SDS011;14780;48.316;-1.050;2023-04-06T01:48:13;2.58;;;2.30;;
18568;SDS011;14780;48.316;-1.050;2023-04-06T01:50:58;9.30;;;2.35;;
18568;SDS011;14780;48.316;-1.050;2023-04-06T01:53:43;5.50;;;2.55;;
18568;SDS011;14780;48.316;-1.050;2023-04-06T01:56:28;4.55;;;2.53;;
18568;SDS011;14780;48.316;-1.050;2023-04-06T01:59:12;3.17;;;2.40;;
18568;SDS011;14780;48.316;-1.050;2023-04-06T02:01:57;3.15;;;2.40;;
18568;SDS011;14780;48.316;-1.050;2023-04-06T02:04:42;4.13;;;2.58;;
18568;SDS011;14780;48.316;-1.050;2023-04-06T02:07:27;2.15;;;1.95;;
18568;SDS011;14780;48.316;-1.050;2023-04-06T02:10:12;2.97;;;2.30;;
18568;SDS011;14780;48.316;-1.050;2023-04-06T02:12:57;3.58;;;2.67;;
18568;SDS011;14780;48.316;-1.050;2023-04-06T02:15:42;4.80;;;2.40;;
18568;SDS011;14780;48.316;-1.050;2023-04-06T02:18:27;2.70;;;2.28;;
18568;SDS011;14780;48.316;-1.050;2023-04-06T02:21:14;3.63;;;2.42;;
18568;SDS011;14780;48.316;-1.050;2023-04-06T02:24:03;2.85;;;2.30;;
18568;SDS011;14780;48.316;-1.050;2023-04-06T02:26:48;3.05;;;2.53;;
18568;SDS011;14780;48.316;-1.050;2023-04-06T02:29:33;2.28;;;2.08;;
18568;SDS011;14780;48.316;-1.050;2023-04-06T02:32:19;3.80;;;2.38;;
18568;SDS011;14780;48.316;-1.050;2023-04-06T02:35:03;3.45;;;2.65;;
18568;SDS011;14780;48.316;-1.050;2023-04-06T02:37:48;3.70;;;2.60;;
18568;SDS011;14780;48.316;-1.050;2023-04-06T02:40:33;2.60;;;2.17;;
18568;SDS011;14780;48.316;-1.050;2023-04-06T02:43:18;3.45;;;2.60;;
18568;SDS011;14780;48.316;-1.050;2023-04-06T02:46:03;4.07;;;2.40;;
18568;SDS011;14780;48.316;-1.050;2023-04-06T02:48:48;2.95;;;2.38;;
18568;SDS011;14780;48.316;-1.050;2023-04-06T02:51:32;3.40;;;2.58;;
18568;SDS011;14780;48.316;-1.050;2023-04-06T02:54:17;2.35;;;2.00;;
18568;SDS011;14780;48.316;-1.050;2023-04-06T02:57:02;3.63;;;2.30;;
18568;SDS011;14780;48.316;-1.050;2023-04-06T02:59:46;2.80;;;2.13;;
18568;SDS011;14780;48.316;-1.050;2023-04-06T03:02:31;3.22;;;2.33;;
18568;SDS011;14780;48.316;-1.050;2023-04-06T03:05:15;2.78;;;2.30;;
18568;SDS011;14780;48.316;-1.050;2023-04-06T03:08:01;4.35;;;2.40;;
18568;SDS011;14780;48.316;-1.050;2023-04-06T03:10:46;2.95;;;2.25;;
18568;SDS011;14780;48.316;-1.050;2023-04-06T03:13:30;3.58;;;2.63;;
18568;SDS011;14780;48.316;-1.050;2023-04-06T03:16:17;3.08;;;2.40;;
18568;SDS011;14780;48.316;-1.050;2023-04-06T03:19:01;2.72;;;2.03;;
18568;SDS011;14780;48.316;-1.050;2023-04-06T03:21:46;3.30;;;2.20;;
18568;SDS011;14780;48.316;-1.050;2023-04-06T03:24:31;3.13;;;2.50;;
18568;SDS011;14780;48.316;-1.050;2023-04-06T03:27:15;3.17;;;2.13;;
18568;SDS011;14780;48.316;-1.050;2023-04-06T03:30:01;2.75;;;2.10;;
18568;SDS011;14780;48.316;-1.050;2023-04-06T03:32:46;3.00;;;2.20;;
18568;SDS011;14780;48.316;-1.050;2023-04-06T03:35:31;2.72;;;2.20;;
18568;SDS011;14780;48.316;-1.050;2023-04-06T03:38:15;3.13;;;2.40;;
18568;SDS011;14780;48.316;-1.050;2023-04-06T03:41:00;4.97;;;3.00;;
18568;SDS011;14780;48.316;-1.050;2023-04-06T03:43:44;2.50;;;2.20;;
18568;SDS011;14780;48.316;-1.050;2023-04-06T03:46:29;2.30;;;2.10;;
18568;SDS011;14780;48.316;-1.050;2023-04-06T03:49:14;3.20;;;2.30;;
18568;SDS011;14780;48.316;-1.050;2023-04-06T03:52:00;2.70;;;2.20;;
18568;SDS011;14780;48.316;-1.050;2023-04-06T03:54:45;3.28;;;2.58;;
18568;SDS011;14780;48.316;-1.050;2023-04-06T03:57:29;2.88;;;2.13;;
18568;SDS011;14780;48.316;-1.050;2023-04-06T04:00:14;2.83;;;2.47;;
18568;SDS011;14780;48.316;-1.050;2023-04-06T04:02:59;3.22;;;2.30;;
18568;SDS011;14780;48.316;-1.050;2023-04-06T04:05:45;2.65;;;2.10;;
18568;SDS011;14780;48.316;-1.050;2023-04-06T04:08:30;4.03;;;2.30;;
18568;SDS011;14780;48.316;-1.050;2023-04-06T04:11:14;3.58;;;2.30;;
18568;SDS011;14780;48.316;-1.050;2023-04-06T04:13:59;3.40;;;2.30;;
18568;SDS011;14780;48.316;-1.050;2023-04-06T04:16:44;2.53;;;2.20;;
18568;SDS011;14780;48.316;-1.050;2023-04-06T04:19:29;3.20;;;2.40;;
18568;SDS011;14780;48.316;-1.050;2023-04-06T04:22:13;3.40;;;2.45;;
18568;SDS011;14780;48.316;-1.050;2023-04-06T04:24:58;2.42;;;2.15;;
18568;SDS011;14780;48.316;-1.050;2023-04-06T04:27:43;2.10;;;1.90;;
18568;SDS011;14780;48.316;-1.050;2023-04-06T04:30:28;2.65;;;2.20;;
18568;SDS011;14780;48.316;-1.050;2023-04-06T04:33:12;2.67;;;2.25;;
18568;SDS011;14780;48.316;-1.050;2023-04-06T04:35:57;2.33;;;2.05;;
18568;SDS011;14780;48.316;-1.050;2023-04-06T04:38:41;2.58;;;2.25;;
18568;SDS011;14780;48.316;-1.050;2023-04-06T04:41:26;4.20;;;2.42;;
18568;SDS011;14780;48.316;-1.050;2023-04-06T04:44:11;3.88;;;2.50;;
18568;SDS011;14780;48.316;-1.050;2023-04-06T04:46:55;3.08;;;2.03;;
18568;SDS011;14780;48.316;-1.050;2023-04-06T04:49:40;3.83;;;2.45;;
18568;SDS011;14780;48.316;-1.050;2023-04-06T04:52:25;3.00;;;2.30;;
18568;SDS011;14780;48.316;-1.050;2023-04-06T04:55:10;2.35;;;2.00;;
18568;SDS011;14780;48.316;-1.050;2023-04-06T04:57:55;2.75;;;2.15;;
18568;SDS011;14780;48.316;-1.050;2023-04-06T05:00:39;3.25;;;2.45;;
18568;SDS011;14780;48.316;-1.050;2023-04-06T05:03:24;3.40;;;2.08;;
18568;SDS011;14780;48.316;-1.050;2023-04-06T05:06:10;3.22;;;2.58;;
18568;SDS011;14780;48.316;-1.050;2023-04-06T05:08:55;2.67;;;2.17;;
18568;SDS011;14780;48.316;-1.050;2023-04-06T05:11:40;2.20;;;2.00;;
18568;SDS011;14780;48.316;-1.050;2023-04-06T05:14:24;3.55;;;2.70;;
18568;SDS011;14780;48.316;-1.050;2023-04-06T05:17:10;2.95;;;2.30;;
18568;SDS011;14780;48.316;-1.050;2023-04-06T05:19:55;3.40;;;2.30;;
18568;SDS011;14780;48.316;-1.050;2023-04-06T05:22:39;2.58;;;2.20;;
18568;SDS011;14780;48.316;-1.050;2023-04-06T05:25:24;2.38;;;2.05;;
18568;SDS011;14780;48.316;-1.050;2023-04-06T05:28:09;2.72;;;2.20;;
18568;SDS011;14780;48.316;-1.050;2023-04-06T05:30:53;3.55;;;2.47;;
18568;SDS011;14780;48.316;-1.050;2023-04-06T05:33:39;2.53;;;2.33;;
18568;SDS011;14780;48.316;-1.050;2023-04-06T05:36:23;2.45;;;2.15;;
18568;SDS011;14780;48.316;-1.050;2023-04-06T05:39:08;2.45;;;2.03;;
18568;SDS011;14780;48.316;-1.050;2023-04-06T05:41:53;4.32;;;2.53;;
18568;SDS011;14780;48.316;-1.050;2023-04-06T05:44:38;2.40;;;2.20;;
18568;SDS011;14780;48.316;-1.050;2023-04-06T05:47:23;2.33;;;1.92;;
18568;SDS011;14780;48.316;-1.050;2023-04-06T05:50:08;4.30;;;2.20;;
18568;SDS011;14780;48.316;-1.050;2023-04-06T05:52:54;2.83;;;2.25;;
18568;SDS011;14780;48.316;-1.050;2023-04-06T05:55:38;2.50;;;2.25;;
18568;SDS011;14780;48.316;-1.050;2023-04-06T05:58:23;3.05;;;2.25;;
18568;SDS011;14780;48.316;-1.050;2023-04-06T06:01:07;2.42;;;2.20;;
18568;SDS011;14780;48.316;-1.050;2023-04-06T06:03:53;3.22;;;2.33;;
18568;SDS011;14780;48.316;-1.050;2023-04-06T06:06:38;2.92;;;2.28;;
18568;SDS011;14780;48.316;-1.050;2023-04-06T06:09:22;2.50;;;2.30;;
18568;SDS011;14780;48.316;-1.050;2023-04-06T06:12:07;2.65;;;2.30;;
18568;SDS011;14780;48.316;-1.050;2023-04-06T06:14:52;2.55;;;2.10;;
18568;SDS011;14780;48.316;-1.050;2023-04-06T06:17:37;2.08;;;1.85;;
18568;SDS011;14780;48.316;-1.050;2023-04-06T06:20:22;3.67;;;2.10;;
18568;SDS011;14780;48.316;-1.050;2023-04-06T06:23:07;2.90;;;2.30;;
18568;SDS011;14780;48.316;-1.050;2023-04-06T06:25:52;3.10;;;2.40;;
18568;SDS011;14780;48.316;-1.050;2023-04-06T06:28:37;2.55;;;2.35;;
18568;SDS011;14780;48.316;-1.050;2023-04-06T06:31:21;2.15;;;1.95;;
18568;SDS011;14780;48.316;-1.050;2023-04-06T06:34:06;3.92;;;2.20;;
18568;SDS011;14780;48.316;-1.050;2023-04-06T06:36:51;2.63;;;2.20;;
18568;SDS011;14780;48.316;-1.050;2023-04-06T06:39:38;2.63;;;2.15;;
18568;SDS011;14780;48.316;-1.050;2023-04-06T06:42:22;3.03;;;2.08;;
18568;SDS011;14780;48.316;-1.050;2023-04-06T06:45:07;2.85;;;2.20;;
18568;SDS011;14780;48.316;-1.050;2023-04-06T06:47:53;2.75;;;2.10;;
18568;SDS011;14780;48.316;-1.050;2023-04-06T06:50:38;3.25;;;2.42;;
18568;SDS011;14780;48.316;-1.050;2023-04-06T06:53:23;2.67;;;2.20;;
18568;SDS011;14780;48.316;-1.050;2023-04-06T06:56:08;2.78;;;2.30;;
18568;SDS011;14780;48.316;-1.050;2023-04-06T06:58:53;3.08;;;2.03;;
18568;SDS011;14780;48.316;-1.050;2023-04-06T07:01:38;2.78;;;2.20;;
18568;SDS011;14780;48.316;-1.050;2023-04-06T07:04:23;2.47;;;2.10;;
18568;SDS011;14780;48.316;-1.050;2023-04-06T07:07:08;2.38;;;1.95;;
18568;SDS011;14780;48.316;-1.050;2023-04-06T07:09:53;3.78;;;2.30;;
18568;SDS011;14780;48.316;-1.050;2023-04-06T07:12:38;2.28;;;1.90;;
18568;SDS011;14780;48.316;-1.050;2023-04-06T07:15:23;2.20;;;2.00;;
18568;SDS011;14780;48.316;-1.050;2023-04-06T07:18:08;3.13;;;2.10;;
18568;SDS011;14780;48.316;-1.050;2023-04-06T07:20:53;2.45;;;2.17;;
18568;SDS011;14780;48.316;-1.050;2023-04-06T07:23:38;2.22;;;2.00;;
18568;SDS011;14780;48.316;-1.050;2023-04-06T07:26:23;1.95;;;1.80;;
18568;SDS011;14780;48.316;-1.050;2023-04-06T07:29:08;2.60;;;2.40;;
18568;SDS011;14780;48.316;-1.050;2023-04-06T07:31:53;2.80;;;2.22;;
18568;SDS011;14780;48.316;-1.050;2023-04-06T07:34:38;2.67;;;2.10;;
18568;SDS011;14780;48.316;-1.050;2023-04-06T07:37:23;2.78;;;2.10;;
18568;SDS011;14780;48.316;-1.050;2023-04-06T07:40:08;3.35;;;2.47;;
18568;SDS011;14780;48.316;-1.050;2023-04-06T07:42:53;3.10;;;2.20;;
18568;SDS011;14780;48.316;-1.050;2023-04-06T07:45:38;3.13;;;2.20;;
18568;SDS011;14780;48.316;-1.050;2023-04-06T07:48:23;2.53;;;2.20;;
18568;SDS011;14780;48.316;-1.050;2023-04-06T07:51:08;3.72;;;2.40;;
18568;SDS011;14780;48.316;-1.050;2023-04-06T07:53:57;3.28;;;2.22;;
18568;SDS011;14780;48.316;-1.050;2023-04-06T07:56:42;3.83;;;2.40;;
18568;SDS011;14780;48.316;-1.050;2023-04-06T07:59:26;3.25;;;2.00;;
18568;SDS011;14780;48.316;-1.050;2023-04-06T08:02:11;4.50;;;2.20;;
18568;SDS011;14780;48.316;-1.050;2023-04-06T08:04:56;3.33;;;2.42;;
18568;SDS011;14780;48.316;-1.050;2023-04-06T08:07:41;2.47;;;2.17;;
18568;SDS011;14780;48.316;-1.050;2023-04-06T08:10:26;2.08;;;1.88;;
18568;SDS011;14780;48.316;-1.050;2023-04-06T08:13:11;4.00;;;2.42;;
18568;SDS011;14780;48.316;-1.050;2023-04-06T08:15:56;2.65;;;2.13;;
18568;SDS011;14780;48.316;-1.050;2023-04-06T08:18:41;2.30;;;2.03;;
18568;SDS011;14780;48.316;-1.050;2023-04-06T08:21:25;2.78;;;1.92;;
18568;SDS011;14780;48.316;-1.050;2023-04-06T08:24:10;2.60;;;2.10;;
18568;SDS011;14780;48.316;-1.050;2023-04-06T08:26:55;3.15;;;1.95;;
18568;SDS011;14780;48.316;-1.050;2023-04-06T08:29:40;2.60;;;2.20;;
18568;SDS011;14780;48.316;-1.050;2023-04-06T08:32:25;3.03;;;2.38;;
18568;SDS011;14780;48.316;-1.050;2023-04-06T08:35:10;3.38;;;2.10;;
18568;SDS011;14780;48.316;-1.050;2023-04-06T08:37:56;3.47;;;2.10;;
18568;SDS011;14780;48.316;-1.050;2023-04-06T08:40:41;2.58;;;2.00;;
18568;SDS011;14780;48.316;-1.050;2023-04-06T08:43:28;3.35;;;2.25;;
18568;SDS011;14780;48.316;-1.050;2023-04-06T08:46:13;3.38;;;2.28;;
18568;SDS011;14780;48.316;-1.050;2023-04-06T08:49:00;2.88;;;2.20;;
18568;SDS011;14780;48.316;-1.050;2023-04-06T08:51:46;2.28;;;1.85;;
18568;SDS011;14780;48.316;-1.050;2023-04-06T08:54:33;2.55;;;1.90;;
18568;SDS011;14780;48.316;-1.050;2023-04-06T08:57:18;4.20;;;2.40;;
18568;SDS011;14780;48.316;-1.050;2023-04-06T09:00:03;3.00;;;2.13;;
18568;SDS011;14780;48.316;-1.050;2023-04-06T09:02:49;3.20;;;2.33;;
18568;SDS011;14780;48.316;-1.050;2023-04-06T09:05:38;2.90;;;2.33;;
18568;SDS011;14780;48.316;-1.050;2023-04-06T09:08:24;3.10;;;2.30;;
18568;SDS011;14780;48.316;-1.050;2023-04-06T09:11:08;2.95;;;2.13;;
18568;SDS011;14780;48.316;-1.050;2023-04-06T09:13:55;2.42;;;1.98;;
18568;SDS011;14780;48.316;-1.050;2023-04-06T09:16:41;2.28;;;2.00;;
18568;SDS011;14780;48.316;-1.050;2023-04-06T09:19:28;2.88;;;2.10;;
18568;SDS011;14780;48.316;-1.050;2023-04-06T09:22:13;2.88;;;2.20;;
18568;SDS011;14780;48.316;-1.050;2023-04-06T09:24:58;2.67;;;2.00;;
18568;SDS011;14780;48.316;-1.050;2023-04-06T09:27:43;3.83;;;1.90;;
18568;SDS011;14780;48.316;-1.050;2023-04-06T09:30:28;2.17;;;1.98;;
18568;SDS011;14780;48.316;-1.050;2023-04-06T09:33:14;2.85;;;2.10;;
18568;SDS011;14780;48.316;-1.050;2023-04-06T09:36:09;2.75;;;2.20;;
18568;SDS011;14780;48.316;-1.050;2023-04-06T09:38:55;3.08;;;2.20;;
18568;SDS011;14780;48.316;-1.050;2023-04-06T09:41:49;3.22;;;2.17;;
18568;SDS011;14780;48.316;-1.050;2023-04-06T09:44:35;2.15;;;1.95;;
18568;SDS011;14780;48.316;-1.050;2023-04-06T09:47:21;2.72;;;2.10;;
18568;SDS011;14780;48.316;-1.050;2023-04-06T09:50:07;3.15;;;2.30;;
18568;SDS011;14780;48.316;-1.050;2023-04-06T09:52:54;3.53;;;2.15;;
18568;SDS011;14780;48.316;-1.050;2023-04-06T09:55:42;2.22;;;1.92;;
18568;SDS011;14780;48.316;-1.050;2023-04-06T09:58:31;2.50;;;1.95;;
18568;SDS011;14780;48.316;-1.050;2023-04-06T10:01:21;2.22;;;1.90;;
18568;SDS011;14780;48.316;-1.050;2023-04-06T10:04:19;2.15;;;1.95;;
18568;SDS011;14780;48.316;-1.050;2023-04-06T10:07:15;2.20;;;2.00;;
18568;SDS011;14780;48.316;-1.050;2023-04-06T10:10:00;2.90;;;2.03;;
18568;SDS011;14780;48.316;-1.050;2023-04-06T10:12:47;2.28;;;2.03;;
18568;SDS011;14780;48.316;-1.050;2023-04-06T10:15:33;3.20;;;2.28;;
18568;SDS011;14780;48.316;-1.050;2023-04-06T10:18:18;3.22;;;2.35;;
18568;SDS011;14780;48.316;-1.050;2023-04-06T10:21:11;2.30;;;1.92;;
18568;SDS011;14780;48.316;-1.050;2023-04-06T10:24:00;2.60;;;2.22;;
18568;SDS011;14780;48.316;-1.050;2023-04-06T10:26:56;2.25;;;1.90;;
18568;SDS011;14780;48.316;-1.050;2023-04-06T10:29:43;3.00;;;2.13;;
18568;SDS011;14780;48.316;-1.050;2023-04-06T10:32:32;2.53;;;1.95;;
18568;SDS011;14780;48.316;-1.050;2023-04-06T10:35:19;2.00;;;1.80;;
18568;SDS011;14780;48.316;-1.050;2023-04-06T10:38:04;3.95;;;2.25;;
18568;SDS011;14780;48.316;-1.050;2023-04-06T10:40:49;2.55;;;2.20;;
18568;SDS011;14780;48.316;-1.050;2023-04-06T10:43:35;2.58;;;1.98;;
18568;SDS011;14780;48.316;-1.050;2023-04-06T10:46:24;6.68;;;2.28;;
18568;SDS011;14780;48.316;-1.050;2023-04-06T10:49:11;4.45;;;2.42;;
18568;SDS011;14780;48.316;-1.050;2023-04-06T10:51:56;2.10;;;1.88;;
18568;SDS011;14780;48.316;-1.050;2023-04-06T10:54:41;2.35;;;1.95;;
18568;SDS011;14780;48.316;-1.050;2023-04-06T10:57:30;2.63;;;2.03;;
18568;SDS011;14780;48.316;-1.050;2023-04-06T11:00:16;2.35;;;1.90;;
18568;SDS011;14780;48.316;-1.050;2023-04-06T11:03:03;3.28;;;2.20;;
18568;SDS011;14780;48.316;-1.050;2023-04-06T11:05:48;2.75;;;2.10;;
18568;SDS011;14780;48.316;-1.050;2023-04-06T11:08:33;2.10;;;1.90;;
18568;SDS011;14780;48.316;-1.050;2023-04-06T11:11:20;4.18;;;2.45;;
18568;SDS011;14780;48.316;-1.050;2023-04-06T11:14:06;2.08;;;1.88;;
18568;SDS011;14780;48.316;-1.050;2023-04-06T11:16:54;3.20;;;2.17;;
18568;SDS011;14780;48.316;-1.050;2023-04-06T11:19:39;1.92;;;1.80;;
18568;SDS011;14780;48.316;-1.050;2023-04-06T11:22:24;2.33;;;2.13;;
18568;SDS011;14780;48.316;-1.050;2023-04-06T11:25:10;3.67;;;2.17;;
18568;SDS011;14780;48.316;-1.050;2023-04-06T11:27:55;2.67;;;1.77;;
18568;SDS011;14780;48.316;-1.050;2023-04-06T11:30:40;2.13;;;1.90;;
18568;SDS011;14780;48.316;-1.050;2023-04-06T11:33:25;2.05;;;1.70;;
18568;SDS011;14780;48.316;-1.050;2023-04-06T11:36:10;2.20;;;1.80;;
18568;SDS011;14780;48.316;-1.050;2023-04-06T11:38:57;2.03;;;1.83;;
18568;SDS011;14780;48.316;-1.050;2023-04-06T11:41:41;3.20;;;2.00;;
18568;SDS011;14780;48.316;-1.050;2023-04-06T11:44:35;1.88;;;1.67;;
18568;SDS011;14780;48.316;-1.050;2023-04-06T11:47:29;2.25;;;1.83;;
18568;SDS011;14780;48.316;-1.050;2023-04-06T11:50:16;2.00;;;1.67;;
18568;SDS011;14780;48.316;-1.050;2023-04-06T11:53:02;1.88;;;1.65;;
18568;SDS011;14780;48.316;-1.050;2023-04-06T11:55:47;3.10;;;1.90;;
18568;SDS011;14780;48.316;-1.050;2023-04-06T11:58:31;2.00;;;1.77;;
18568;SDS011;14780;48.316;-1.050;2023-04-06T12:01:16;1.95;;;1.73;;
18568;SDS011;14780;48.316;-1.050;2023-04-06T12:04:00;2.17;;;1.88;;
18568;SDS011;14780;48.316;-1.050;2023-04-06T12:06:46;2.70;;;2.10;;
18568;SDS011;14780;48.316;-1.050;2023-04-06T12:09:31;3.05;;;2.13;;
18568;SDS011;14780;48.316;-1.050;2023-04-06T12:12:18;2.20;;;2.00;;
18568;SDS011;14780;48.316;-1.050;2023-04-06T12:15:03;2.83;;;1.90;;
18568;SDS011;14780;48.316;-1.050;2023-04-06T12:17:48;1.85;;;1.75;;
18568;SDS011;14780;48.316;-1.050;2023-04-06T12:20:33;2.17;;;1.80;;
18568;SDS011;14780;48.316;-1.050;2023-04-06T12:23:21;2.45;;;1.70;;
18568;SDS011;14780;48.316;-1.050;2023-04-06T12:26:06;1.70;;;1.60;;
18568;SDS011;14780;48.316;-1.050;2023-04-06T12:28:50;2.50;;;1.73;;
18568;SDS011;14780;48.316;-1.050;2023-04-06T12:31:35;2.45;;;1.80;;
18568;SDS011;14780;48.316;-1.050;2023-04-06T12:34:22;1.73;;;1.45;;
18568;SDS011;14780;48.316;-1.050;2023-04-06T12:37:06;4.32;;;2.03;;
18568;SDS011;14780;48.316;-1.050;2023-04-06T12:39:52;1.73;;;1.58;;
18568;SDS011;14780;48.316;-1.050;2023-04-06T12:42:38;1.83;;;1.70;;
18568;SDS011;14780;48.316;-1.050;2023-04-06T12:45:24;1.95;;;1.60;;
18568;SDS011;14780;48.316;-1.050;2023-04-06T12:48:09;1.48;;;1.38;;
18568;SDS011;14780;48.316;-1.050;2023-04-06T12:51:00;2.30;;;1.70;;
18568;SDS011;14780;48.316;-1.050;2023-04-06T12:53:47;2.10;;;1.70;;
18568;SDS011;14780;48.316;-1.050;2023-04-06T12:56:32;2.15;;;1.77;;
18568;SDS011;14780;48.316;-1.050;2023-04-06T12:59:17;1.77;;;1.52;;
18568;SDS011;14780;48.316;-1.050;2023-04-06T13:02:03;3.03;;;1.75;;
18568;SDS011;14780;48.316;-1.050;2023-04-06T13:04:48;1.65;;;1.52;;
18568;SDS011;14780;48.316;-1.050;2023-04-06T13:07:34;1.40;;;1.30;;
18568;SDS011;14780;48.316;-1.050;2023-04-06T13:10:18;2.97;;;2.05;;
18568;SDS011;14780;48.316;-1.050;2023-04-06T13:13:03;1.80;;;1.63;;
18568;SDS011;14780;48.316;-1.050;2023-04-06T13:15:49;3.15;;;1.75;;
18568;SDS011;14780;48.316;-1.050;2023-04-06T13:18:34;2.15;;;1.73;;
18568;SDS011;14780;48.316;-1.050;2023-04-06T13:21:21;1.60;;;1.23;;
18568;SDS011;14780;48.316;-1.050;2023-04-06T13:24:06;1.58;;;1.48;;
18568;SDS011;14780;48.316;-1.050;2023-04-06T13:26:50;2.08;;;1.60;;
18568;SDS011;14780;48.316;-1.050;2023-04-06T13:29:35;2.08;;;1.85;;
18568;SDS011;14780;48.316;-1.050;2023-04-06T13:32:20;1.40;;;1.30;;
18568;SDS011;14780;48.316;-1.050;2023-04-06T13:35:05;2.40;;;1.63;;
18568;SDS011;14780;48.316;-1.050;2023-04-06T13:37:51;3.45;;;1.60;;
18568;SDS011;14780;48.316;-1.050;2023-04-06T13:40:38;1.95;;;1.65;;
18568;SDS011;14780;48.316;-1.050;2023-04-06T13:43:23;2.50;;;1.60;;
18568;SDS011;14780;48.316;-1.050;2023-04-06T13:46:10;1.95;;;1.38;;
18568;SDS011;14780;48.316;-1.050;2023-04-06T13:48:55;1.80;;;1.45;;
18568;SDS011;14780;48.316;-1.050;2023-04-06T13:51:39;1.88;;;1.60;;
18568;SDS011;14780;48.316;-1.050;2023-04-06T13:54:26;1.55;;;1.23;;
18568;SDS011;14780;48.316;-1.050;2023-04-06T13:57:11;2.85;;;1.60;;
18568;SDS011;14780;48.316;-1.050;2023-04-06T13:59:56;2.53;;;1.80;;
18568;SDS011;14780;48.316;-1.050;2023-04-06T14:02:41;2.03;;;1.60;;
18568;SDS011;14780;48.316;-1.050;2023-04-06T14:05:25;2.10;;;1.60;;
18568;SDS011;14780;48.316;-1.050;2023-04-06T14:08:14;2.03;;;1.65;;
18568;SDS011;14780;48.316;-1.050;2023-04-06T14:10:59;1.33;;;1.23;;
18568;SDS011;14780;48.316;-1.050;2023-04-06T14:13:43;2.50;;;1.58;;
18568;SDS011;14780;48.316;-1.050;2023-04-06T14:16:28;1.70;;;1.30;;
18568;SDS011;14780;48.316;-1.050;2023-04-06T14:19:15;3.70;;;1.67;;
18568;SDS011;14780;48.316;-1.050;2023-04-06T14:22:01;3.90;;;1.98;;
18568;SDS011;14780;48.316;-1.050;2023-04-06T14:24:47;2.30;;;1.80;;
18568;SDS011;14780;48.316;-1.050;2023-04-06T14:27:32;1.77;;;1.60;;
18568;SDS011;14780;48.316;-1.050;2023-04-06T14:30:16;2.38;;;1.70;;
18568;SDS011;14780;48.316;-1.050;2023-04-06T14:33:01;2.60;;;1.80;;
18568;SDS011;14780;48.316;-1.050;2023-04-06T14:35:47;3.28;;;1.83;;
18568;SDS011;14780;48.316;-1.050;2023-04-06T14:38:31;1.75;;;1.50;;
18568;SDS011;14780;48.316;-1.050;2023-04-06T14:41:17;3.15;;;1.83;;
18568;SDS011;14780;48.316;-1.050;2023-04-06T14:44:03;3.85;;;1.73;;
18568;SDS011;14780;48.316;-1.050;2023-04-06T14:46:49;1.88;;;1.48;;
18568;SDS011;14780;48.316;-1.050;2023-04-06T14:49:34;2.33;;;1.60;;
18568;SDS011;14780;48.316;-1.050;2023-04-06T14:52:19;3.13;;;1.80;;
18568;SDS011;14780;48.316;-1.050;2023-04-06T14:55:04;2.15;;;1.50;;
18568;SDS011;14780;48.316;-1.050;2023-04-06T14:57:49;2.15;;;1.48;;
18568;SDS011;14780;48.316;-1.050;2023-04-06T15:00:33;3.03;;;1.67;;
18568;SDS011;14780;48.316;-1.050;2023-04-06T15:03:20;2.63;;;1.42;;
18568;SDS011;14780;48.316;-1.050;2023-04-06T15:06:05;2.22;;;1.48;;
18568;SDS011;14780;48.316;-1.050;2023-04-06T15:08:56;2.13;;;1.65;;
18568;SDS011;14780;48.316;-1.050;2023-04-06T15:11:41;2.42;;;1.25;;
18568;SDS011;14780;48.316;-1.050;2023-04-06T15:14:26;2.78;;;1.73;;
18568;SDS011;14780;48.316;-1.050;2023-04-06T15:17:10;2.42;;;1.70;;
18568;SDS011;14780;48.316;-1.050;2023-04-06T15:19:55;2.42;;;1.70;;
18568;SDS011;14780;48.316;-1.050;2023-04-06T15:22:40;1.40;;;1.30;;
18568;SDS011;14780;48.316;-1.050;2023-04-06T15:25:24;1.90;;;1.70;;
18568;SDS011;14780;48.316;-1.050;2023-04-06T15:28:09;1.73;;;1.40;;
18568;SDS011;14780;48.316;-1.050;2023-04-06T15:30:54;2.88;;;1.67;;
18568;SDS011;14780;48.316;-1.050;2023-04-06T15:33:40;2.55;;;1.67;;
18568;SDS011;14780;48.316;-1.050;2023-04-06T15:36:27;1.40;;;1.30;;
18568;SDS011;14780;48.316;-1.050;2023-04-06T15:39:13;3.47;;;1.70;;
18568;SDS011;14780;48.316;-1.050;2023-04-06T15:41:58;2.13;;;1.63;;
18568;SDS011;14780;48.316;-1.050;2023-04-06T15:44:43;1.92;;;1.40;;
18568;SDS011;14780;48.316;-1.050;2023-04-06T15:47:28;2.53;;;1.50;;
18568;SDS011;14780;48.316;-1.050;2023-04-06T15:50:13;2.45;;;1.52;;
18568;SDS011;14780;48.316;-1.050;2023-04-06T15:52:58;1.38;;;1.25;;
18568;SDS011;14780;48.316;-1.050;2023-04-06T15:55:43;2.17;;;1.52;;
18568;SDS011;14780;48.316;-1.050;2023-04-06T15:58:27;2.30;;;1.42;;
18568;SDS011;14780;48.316;-1.050;2023-04-06T16:01:16;3.42;;;1.73;;
18568;SDS011;14780;48.316;-1.050;2023-04-06T16:04:02;2.00;;;1.45;;
18568;SDS011;14780;48.316;-1.050;2023-04-06T16:06:49;2.97;;;1.42;;
18568;SDS011;14780;48.316;-1.050;2023-04-06T16:09:34;1.98;;;1.58;;
18568;SDS011;14780;48.316;-1.050;2023-04-06T16:12:19;2.83;;;1.90;;
18568;SDS011;14780;48.316;-1.050;2023-04-06T16:15:03;1.63;;;1.10;;
18568;SDS011;14780;48.316;-1.050;2023-04-06T16:17:49;3.00;;;1.70;;
18568;SDS011;14780;48.316;-1.050;2023-04-06T16:20:34;2.03;;;1.58;;